Buffalo, NY

12:18 PM EDT on September 26, 2016 (GMT -0400)
Buffalo Niagara International | | Change Station

Elev 702 ft 42.94 °N, 78.74 °W | Updated 24 minutes ago

Mostly Cloudy
Mostly Cloudy
69 °F
Feels Like 69 °F
N
8
Wind Variable Wind from South

Today
High -- | Low -- °F
--% Chance of Precip.
Yesterday
High -- | Low -- °F
Precip. -- in
Pressure 29.88 in
Visibility 10.0 miles
Clouds Few 4000 ft
Few 7500 ft
Scattered Clouds 11000 ft
Mostly Cloudy 15000 ft
Mostly Cloudy 26000 ft
Dew Point 50 °F
Humidity 51%
Rainfall 0.00 in
Snow Depth Not available.
7:07 AM 7:04 PM
Waning Crescent, 18% visible
METAR KBUF 261554Z 18007KT 10SM FEW040 FEW075 SCT110 BKN150 BKN260 21/10 A2988 RMK AO2 SLP119 SHRA DSNT SW-NW-NE T02060100
Pressure 29.88 in
Visibility 10.0 miles
Clouds Few 4000 ft
Few 7500 ft
Scattered Clouds 11000 ft
Mostly Cloudy 15000 ft
Mostly Cloudy 26000 ft
Dew Point 50 °F
Humidity 51%
Rainfall 0.00 in
Snow Depth Not available.
7:07 AM 7:04 PM
Waning Crescent, 18% visible
METAR KBUF 261554Z 18007KT 10SM FEW040 FEW075 SCT110 BKN150 BKN260 21/10 A2988 RMK AO2 SLP119 SHRA DSNT SW-NW-NE T02060100

10-Day Weather Forecast

Almanac

Astronomy

Sep. 26, 2016 Rise Set
Actual Time
Civil Twilight
Nautical Twilight
Astronomical Twilight
Moon
Length of Visible Light
Length of Day
Tomorrow will be .
, % of the Moon is Illuminated

Today's Extremes

State Highs State Lows

Community

WunderPhotos

Upload Photos

1,941,914 photos uploaded!

WunderBlog® & News

Nearby

Air Quality

  Air Quality AQ Index Pollutant
Not available.

Snow Depth

Station Depth Elevation

Earthquake Activity

City Distance Mag. Time & Date
Minimum magnitude displayed is 2.5.

Coastal Water Temperatures

Place Temperature

Stations

Nearby Weather Stations

Station Location Temp. Windchill Dew Point Humidity Wind Precip. Elev Updated Type
                   

Watches & Warnings

There are currently no watches in effect.